Airfield :
LOGIN :

Register | Disclaimer

   EN    FR    IT 

 










Legend :    VFR   Marginal VFR   IFR   Intensive IFR   Very Intensive IFR
Visi :
Ceiling :
>= 8 km
>= 3000ft
5 to 8 km
1000 to 3000 ft
1500m to 5 km
500 to 1000 ft
800 to 1500m
200 to 500 ft
< 800m
< 200 ft
Symbols :   Thunderstorms  Fog  Heavy snow  Heavy precipitations  Wind > 20 kt
SIGMETs :     Misc.  Thunderstorms  Icing  Turbulence  Mountain Waves  Volcanic Ashes






- Airport Elevation : 681 ft
- IATA code : LBA


EGNM - Leeds Bradford

CURRENT METAR :
  • 240950Z 27015KT 9999 SCT009 06/05 Q1021

EXPIRED METARs :
  • 240920Z 27012KT 9999 SCT009 06/04 Q1021
  • 240850Z 27014KT 9999 SCT009 SCT011 06/04 Q1021
  • 240820Z 28015KT 9999 BKN010 06/04 Q1021
  • 240750Z 27014KT 9999 BKN012 06/04 Q1021
  • 240720Z 27016KT 9999 BKN011 06/04 Q1021

TAF TAF EGNM
Valid from the 24 at 06:00 until the 25 at 06:00 UTC


240505Z 2406/2506 26010KT 9999 SCT018
TEMPO 2406/2506 8000 BKN012
BECMG 2500/2503 20006KT
ATIS : +44 113 250 9696 (x2489)



MET'MAP, your aeronautical weather chart ! - Copyright ORBIFLY December 2007 - Disclaimer

ORBIFLY MET'MAP TEAM :

Programming & Development : Alexandra Zaïnal
Concept & original design : Baudouin d'Aumeries
Assistance for programming : Marc-Olivier Méhu
Technical & hardware support : Manuel Goepfert

Contact : metmap@orbifly.com




SOURCES & CREDITS :

   NOAA